• Join FlightAware (Why Join?)
  • Login
  • US Flag 
01:03AM EDT


 

Airport Tracker/Info


-or-


 

Live Flight TrackerFlight Track Log ✈ N5920V ✈ 22-Sep-2013 ✈ KLRO - KGNV

Flight Track Log - Related Links

Times and Time Zones

All times are in EDT time to prevent confusion due to time zone crossing. See the N5920V flight status page for this flight to view local times or setup timezone preferences in your user account.

Time Position Orientation Groundspeed Altitude Reporting Facility
EDT Latitude Longitude Course Direction KTS MPH feet Rate Location/Type
03:44PM 32.1575 -80.9219 214° Southwest 134 154 10,400  Level Jacksonville Center
03:45PM 32.1286 -80.9447 214° Southwest 140 161 10,400  Level Jacksonville Center
03:46PM 32.0978 -80.9700 215° Southwest 147 169 10,400  Level Jacksonville Center
03:47PM 32.0606 -80.9953 210° Southwest 147 169 10,400  Level Jacksonville Center
03:48PM 32.0275 -81.0156 207° Southwest 147 169 10,400  Level Jacksonville Center
03:49PM 31.9944 -81.0406 213° Southwest 142 163 10,400  Level Jacksonville Center
03:50PM 31.9611 -81.0536 198° South 142 163 10,400  Level Jacksonville Center
03:51PM 31.9236 -81.0667 196° South 142 163 10,500  Climbing Jacksonville Center
03:52PM 31.8844 -81.0869 204° Southwest 142 163 10,400 -60 Descending Jacksonville Center
03:53PM 31.8514 -81.1119 213° Southwest 147 169 10,400  Level Jacksonville Center
03:54PM 31.8183 -81.1347 210° Southwest 147 169 10,500  Climbing Jacksonville Center
03:55PM 31.7892 -81.1547 210° Southwest 142 163 10,500 -120 Level Jacksonville Center
03:56PM 31.7561 -81.1797 213° Southwest 142 163 10,300 -300 Descending Jacksonville Center
03:57PM 31.7169 -81.2075 211° Southwest 142 163 9,900 -420 Descending Jacksonville Center
03:58PM 31.6839 -81.2347 215° Southwest 147 169 9,500 -360 Descending Jacksonville Center
03:59PM 31.6508 -81.2622 215° Southwest 147 169 9,200 -300 Descending Jacksonville Center
04:00PM 31.6197 -81.2872 214° Southwest 147 169 8,900 -300 Descending Jacksonville Center
04:01PM 31.5847 -81.3194 218° Southwest 147 169 8,600 -300 Descending Jacksonville Center
04:02PM 31.5581 -81.3492 224° Southwest 147 169 8,400 -120 Descending Jacksonville Center
04:03PM 31.5333 -81.3814 228° Southwest 135 155 8,400  Level Jacksonville Center
04:04PM 31.5128 -81.4108 231° Southwest 130 150 8,500  Climbing Jacksonville Center
04:05PM 31.4922 -81.4428 233° Southwest 130 150 8,400 -60 Descending Jacksonville Center
04:06PM 31.4592 -81.4728 218° Southwest 135 155 8,400  Level Jacksonville Center
04:07PM 31.4281 -81.4950 211° Southwest 140 161 8,400  Level Jacksonville Center
04:08PM 31.3906 -81.5103 199° South 140 161 8,400  Level Jacksonville Center
04:09PM 31.3594 -81.5228 199° South 140 161 8,400  Level Jacksonville Center
04:10PM 31.3242 -81.5381 200° South 140 161 8,400  Level Jacksonville Center
04:11PM 31.2803 -81.5483 191° South 145 167 8,500  Climbing Jacksonville Center
04:12PM 31.2431 -81.5586 193° South 145 167 8,500  Level Jacksonville Center
04:12PM 31.2264 -81.5611 187° South 140 161 8,500  Level Jacksonville Center
04:13PM 31.2033 -81.5639 186° South 145 167 8,500  Level Jacksonville Center
04:14PM 31.1678 -81.5644 181° South 145 167 8,500  Level Jacksonville Center
04:15PM 31.1322 -81.5578 171° South 150 173 8,500  Level Jacksonville Center
04:15PM 31.1219 -81.5553 168° South 145 167 8,500  Level Jacksonville Center
04:16PM 31.0906 -81.5486 170° South 153 176 8,500  Level Jacksonville Center
04:16PM 31.0800 -81.5464 170° South 150 173 8,500 -120 Level Jacksonville Center
04:16PM 31.0547 -81.5369 162° South 153 176 8,400 -120 Descending Jacksonville Center
04:17PM 31.0381 -81.5372 181° South 160 184 8,400  Level Jacksonville Center
04:17PM 31.0172 -81.5303 164° South 157 181 8,400  Level Jacksonville Center
04:18PM 30.9942 -81.5281 175° South 160 184 8,400  Level Jacksonville Center
04:18PM 30.9711 -81.5211 166° South 155 178 8,400  Level Jacksonville Center
04:19PM 30.9544 -81.5167 167° South 160 184 8,400 60 Level Jacksonville Center
04:19PM 30.9292 -81.5097 167° South 155 178 8,500  Climbing Jacksonville Center
04:20PM 30.9125 -81.5028 160° South 160 184 8,400 -120 Descending Jacksonville Center
04:21PM 30.8706 -81.4864 161° South 160 184 8,400 -120 Level Jacksonville Center
04:21PM 30.8453 -81.4747 158° South 156 180 8,300  Descending Jacksonville Center
04:22PM 30.8286 -81.4678 160° South 160 184 8,400 180 Climbing Jacksonville Center
04:22PM 30.8056 -81.4558 156° South 158 182 8,500 60 Climbing Jacksonville Center
04:23PM 30.7636 -81.4419 164° South 150 173 8,500  Level Jacksonville Center
04:24PM 30.7217 -81.4356 173° South 152 175 8,500  Level Jacksonville Center
04:25PM 30.6800 -81.4311 175° South 148 170 8,500  Level Jacksonville Center
04:26PM 30.6361 -81.4294 178° South 149 171 8,500  Level Jacksonville Center
04:27PM 30.5942 -81.4300 181° South 146 168 8,500  Level Jacksonville Center
04:28PM 30.5567 -81.4331 184° South 142 163 8,500 -60 Level Jacksonville Center
04:29PM 30.5172 -81.4408 190° South 145 167 8,400  Descending Jacksonville Center
04:30PM 30.4839 -81.4511 195° South 134 154 8,500  Climbing Jacksonville Center
04:31PM 30.4444 -81.4636 195° South 135 155 8,500 -120 Level Jacksonville Center
04:32PM 30.4025 -81.4644 181° South 142 163 8,300 -300 Descending Jacksonville Center
04:34PM 30.3589 -81.4722 189° South 148 170 7,900 -120 Descending Jacksonville Center
04:35PM 30.3214 -81.4847 196° South 126 145 8,100 -120 Climbing Jacksonville Center
04:36PM 30.2858 -81.4733 165° South 139 160 7,700 -540 Descending Jacksonville Center
04:37PM 30.2583 -81.4497 143° Southeast 123 142 7,100 -900 Descending Jacksonville Center
04:38PM 30.2833 -81.4469 North 135 155 6,000 -960 Descending Jacksonville Center
04:39PM 30.2667 -81.4447 173° South 88 101 5,100 -780 Descending Jacksonville Center
04:40PM 30.2789 -81.4133 66° East 139 160 4,300 -660 Descending Jacksonville Center
04:41PM 30.2556 -81.3967 148° Southeast 124 143 3,800 -720 Descending Jacksonville Center
04:42PM 30.2242 -81.3853 163° South 128 147 3,000 -780 Descending Jacksonville Center
04:43PM 30.1906 -81.3642 152° Southeast 121 139 2,300 -480 Descending Jacksonville Center
04:44PM 30.1592 -81.3478 156° South 110 127 2,000 -240 Descending Jacksonville Center
04:45PM 30.1275 -81.3364 163° South 111 128 1,800 -240 Descending Jacksonville Center
04:46PM 30.0983 -81.3392 185° South 99 114 1,500 -300 Descending Jacksonville Center
04:47PM 30.0711 -81.3325 168° South 107 123 1,200 -300 Descending Jacksonville Center
04:48PM 30.0397 -81.3233 166° South 109 125 1,000 -120 Descending Jacksonville Center
04:49PM 30.0147 -81.3214 176° South 103 119 1,000 -60 Level Jacksonville Center
04:50PM 29.9894 -81.3169 171° South 98 113 900 -120 Descending Jacksonville Center
04:51PM 29.9603 -81.3078 165° South 97 112 800 -120 Descending Jacksonville Center
04:53PM 29.9040 -81.3232 187° South  Level FlightAware Approximate
05:00PM 29.6494 -81.3616 188° South  Level FlightAware Approximate
05:01PM 29.6131 -81.3669 184° South  Level FlightAware Approximate
05:02PM 29.5764 -81.3696 184° South  Level FlightAware Approximate
05:03PM 29.5398 -81.3722 184° South  Level FlightAware Approximate
05:04PM 29.5032 -81.3748 184° South  Level FlightAware Approximate
05:05PM 29.4666 -81.3774 184° South  Level FlightAware Approximate
05:06PM 29.4300 -81.3800 184° South  Level FlightAware Approximate
05:07PM 29.3934 -81.3826 184° South  Level FlightAware Approximate
05:08PM 29.3569 -81.3864 186° South  Level FlightAware Approximate
05:09PM 29.3204 -81.3906 186° South  Level FlightAware Approximate
05:10PM 29.2839 -81.3949 186° South  Level FlightAware Approximate
05:11PM 29.2474 -81.3991 186° South  Level FlightAware Approximate
05:12PM 29.2109 -81.4033 186° South  Level FlightAware Approximate
05:13PM 29.1744 -81.4075 186° South  Level FlightAware Approximate
05:14PM 29.1379 -81.4117 186° South  Level FlightAware Approximate
05:15PM 29.1014 -81.4159 186° South  Level FlightAware Approximate
05:16PM 29.0649 -81.4201 186° South  Level FlightAware Approximate
05:17PM 29.0284 -81.4243 186° South  Level FlightAware Approximate
05:18PM 28.9919 -81.4285 186° South  Level FlightAware Approximate
05:19PM 28.9554 -81.4327 186° South  Level FlightAware Approximate
05:20PM 28.9190 -81.4376 187° South  Level FlightAware Approximate
05:21PM 28.8826 -81.4426 187° South  Level FlightAware Approximate
05:22PM 28.8461 -81.4475 187° South  Level FlightAware Approximate
05:23PM 28.8097 -81.4525 187° South  Level FlightAware Approximate
05:24PM 28.7733 -81.4575 187° South  Level FlightAware Approximate
05:25PM 28.7369 -81.4624 187° South  Level FlightAware Approximate
05:26PM 28.7005 -81.4674 187° South  Level FlightAware Approximate
05:27PM 28.6640 -81.4724 187° South  Level FlightAware Approximate
05:28PM 28.6276 -81.4773 187° South  Level FlightAware Approximate
05:29PM 28.5912 -81.4823 187° South  Level FlightAware Approximate
05:30PM 28.5548 -81.4872 187° South  Level FlightAware Approximate
05:31PM 28.5184 -81.4922 187° South  Level FlightAware Approximate
05:32PM 28.4820 -81.4971 187° South  Level FlightAware Approximate
05:33PM 28.4455 -81.5021 187° South  Level FlightAware Approximate
05:34PM 28.4091 -81.5070 187° South  Level FlightAware Approximate
05:35PM 28.3727 -81.5119 187° South  Level FlightAware Approximate
05:36PM 28.3363 -81.5169 187° South  Level FlightAware Approximate
05:37PM 28.2999 -81.5218 187° South  Level FlightAware Approximate
05:38PM 28.2634 -81.5267 187° South  Level FlightAware Approximate
05:39PM 28.2270 -81.5316 187° South  Level FlightAware Approximate
05:40PM 28.1906 -81.5365 187° South  Level FlightAware Approximate
05:41PM 28.1542 -81.5414 187° South  Level FlightAware Approximate
05:42PM 28.1178 -81.5463 187° South  Level FlightAware Approximate
05:43PM 28.0813 -81.5512 187° South  Level FlightAware Approximate
05:44PM 28.0449 -81.5562 187° South  Level FlightAware Approximate
05:45PM 28.0085 -81.5611 187° South  Level FlightAware Approximate
05:46PM 27.9721 -81.5659 187° South  Level FlightAware Approximate
05:47PM 27.9355 -81.5700 185° South  Level FlightAware Approximate
05:48PM 27.8990 -81.5740 185° South  Level FlightAware Approximate
05:49PM 27.8625 -81.5779 185° South  Level FlightAware Approximate
05:50PM 27.8260 -81.5818 185° South  Level FlightAware Approximate
05:51PM 27.7894 -81.5857 185° South  Level FlightAware Approximate
05:52PM 27.7529 -81.5896 185° South  Level FlightAware Approximate
05:53PM 27.7164 -81.5935 185° South  Level FlightAware Approximate
05:54PM 27.6799 -81.5974 185° South  Level FlightAware Approximate
05:55PM 27.6434 -81.6013 185° South  Level FlightAware Approximate
05:56PM 27.6068 -81.6053 185° South  Level FlightAware Approximate
05:57PM 27.5703 -81.6092 185° South  Level FlightAware Approximate
05:58PM 27.5338 -81.6131 185° South  Level FlightAware Approximate
05:59PM 27.4973 -81.6170 186° South  Level FlightAware Approximate
06:00PM 27.4608 -81.6210 186° South  Level FlightAware Approximate
06:01PM 27.4243 -81.6251 186° South  Level FlightAware Approximate
06:02PM 27.3878 -81.6292 186° South  Level FlightAware Approximate
06:03PM 27.3513 -81.6332 186° South  Level FlightAware Approximate
06:04PM 27.3148 -81.6373 186° South  Level FlightAware Approximate
06:05PM 27.2783 -81.6413 186° South  Level FlightAware Approximate
06:06PM 27.2418 -81.6454 186° South  Level FlightAware Approximate
06:07PM 27.2053 -81.6495 186° South  Level FlightAware Approximate
06:08PM 27.1688 -81.6535 186° South  Level FlightAware Approximate
06:09PM 27.1323 -81.6575 186° South  Level FlightAware Approximate
06:10PM 27.0958 -81.6616 186° South  Level FlightAware Approximate
06:11PM 27.0593 -81.6656 186° South  Level FlightAware Approximate
06:12PM 27.0228 -81.6699 186° South  Level FlightAware Approximate
06:13PM 26.9863 -81.6742 186° South  Level FlightAware Approximate
06:14PM 26.9498 -81.6785 186° South  Level FlightAware Approximate
06:15PM 26.9133 -81.6828 186° South  Level FlightAware Approximate
06:16PM 26.8769 -81.6871 186° South  Level FlightAware Approximate
06:17PM 26.8404 -81.6915 186° South  Level FlightAware Approximate
06:18PM 26.8039 -81.6958 186° South  Level FlightAware Approximate
06:19PM 26.7674 -81.7001 186° South  Level FlightAware Approximate
06:20PM 26.7309 -81.7044 186° South  Level FlightAware Approximate
06:21PM 26.6945 -81.7087 186° South  Level FlightAware Approximate
06:22PM 26.6580 -81.7130 186° South  Level FlightAware Approximate
06:23PM 26.6215 -81.7173 186° South  Level FlightAware Approximate
06:24PM 26.5850 -81.7215 186° South  Level FlightAware Approximate
06:25PM 26.5485 -81.7258 186° South  Level FlightAware Approximate
06:26PM 26.5121 -81.7301 186° South  Level FlightAware Approximate
06:27PM 26.4756 -81.7344 186° South  Level FlightAware Approximate
06:28PM 26.4391 -81.7387 186° South  Level FlightAware Approximate
06:29PM 26.4026 -81.7430 186° South  Level FlightAware Approximate
06:30PM 26.3661 -81.7472 186° South  Level FlightAware Approximate
06:31PM 26.3297 -81.7515 186° South  Level FlightAware Approximate
06:32PM 26.2932 -81.7558 186° South  Level FlightAware Approximate
06:33PM 26.2567 -81.7600 186° South  Level FlightAware Approximate
06:34PM 26.2202 -81.7643 186° South  Level FlightAware Approximate
06:35PM 26.1837 -81.7667 180° South  Level FlightAware Approximate
06:36PM 26.1500 -81.7667 180° South  Level FlightAware Approximate
06:37PM 26.1864 -81.7717 180° South  Level Estimated
06:38PM 26.1500 -81.7667 180° South  Level FlightAware Approximate
06:39PM 26.1864 -81.7717 180° South  Level Estimated
06:40PM 26.1500 -81.7667 180° South  Level FlightAware Approximate
06:41PM 26.1864 -81.7717 180° South  Level Estimated
06:42PM 26.1500 -81.7667 180° South  Level FlightAware Approximate
06:43PM 26.1864 -81.7717 180° South  Level Estimated
06:44PM 26.1500 -81.7667 180° South  Level FlightAware Approximate